createdAt,value
2018-02-03T00:03:57.219Z,3.9
2018-02-03T00:20:44.096Z,3.9
2018-02-03T00:37:31.212Z,3.9
2018-02-03T00:54:19.268Z,3.9
2018-02-03T01:11:06.030Z,3.9
2018-02-03T01:27:53.676Z,3.9
2018-02-03T01:44:40.621Z,3.9
2018-02-03T02:01:28.006Z,3.9
2018-02-03T02:18:15.361Z,3.9
2018-02-03T02:35:02.218Z,3.9
2018-02-03T02:51:49.070Z,3.9
2018-02-03T03:08:36.504Z,3.8
2018-02-03T03:25:23.371Z,3.8
2018-02-03T03:42:10.166Z,3.8
2018-02-03T03:58:58.256Z,3.8
2018-02-03T04:15:43.892Z,3.8
2018-02-03T04:32:31.033Z,3.8
2018-02-03T04:49:18.174Z,3.8
2018-02-03T05:06:04.748Z,3.8
2018-02-03T05:22:51.980Z,3.8
2018-02-03T05:39:38.208Z,3.8
2018-02-03T05:56:26.775Z,3.8
2018-02-03T06:13:12.547Z,3.7
2018-02-03T06:29:59.248Z,3.7
2018-02-03T06:46:46.264Z,3.7
2018-02-03T07:03:32.257Z,3.7
2018-02-03T07:20:18.921Z,3.7
2018-02-03T07:37:05.182Z,3.7
2018-02-03T07:53:51.273Z,3.7
2018-02-03T08:10:38.435Z,3.8
2018-02-03T08:27:24.371Z,3.7
2018-02-03T08:44:11.288Z,3.8
2018-02-03T09:00:58.820Z,3.7
2018-02-03T09:17:45.035Z,3.8
2018-02-03T09:34:32.227Z,3.8
2018-02-03T09:51:19.251Z,3.9
2018-02-03T10:08:06.601Z,3.9
2018-02-03T10:24:53.779Z,4.0
2018-02-03T10:41:40.666Z,4.2
2018-02-03T10:58:27.970Z,4.3
2018-02-03T11:15:15.794Z,4.4
2018-02-03T11:32:03.121Z,4.5
2018-02-03T11:48:50.829Z,4.5
2018-02-03T12:05:38.746Z,4.6
2018-02-03T12:22:27.240Z,4.5
2018-02-03T12:39:14.540Z,4.5
2018-02-03T12:56:02.409Z,4.5
2018-02-03T13:12:50.253Z,4.5
2018-02-03T13:29:38.243Z,4.5
2018-02-03T13:46:26.230Z,4.5
2018-02-03T14:03:14.131Z,4.5
2018-02-03T14:20:02.180Z,4.5
2018-02-03T14:36:50.098Z,4.4
2018-02-03T14:53:38.063Z,4.4
2018-02-03T15:10:26.141Z,4.4
2018-02-03T15:27:14.286Z,4.4
2018-02-03T15:44:02.483Z,4.3
2018-02-03T16:00:50.480Z,4.3
2018-02-03T16:17:38.617Z,4.3
2018-02-03T16:34:26.631Z,4.3
2018-02-03T16:51:14.837Z,4.3
2018-02-03T17:08:02.714Z,4.2
2018-02-03T17:24:50.097Z,4.2
2018-02-03T17:41:37.506Z,4.2
2018-02-03T17:58:24.764Z,4.2
2018-02-03T18:15:12.186Z,4.2
2018-02-03T18:31:59.534Z,4.2
2018-02-03T18:48:46.696Z,4.2
2018-02-03T19:05:33.911Z,4.2
2018-02-03T19:22:21.035Z,4.2
2018-02-03T19:39:08.094Z,4.2
2018-02-03T19:55:55.297Z,4.1
2018-02-03T20:12:42.375Z,4.1
2018-02-03T20:29:29.615Z,4.1
2018-02-03T20:46:16.349Z,4.1
2018-02-03T21:03:03.298Z,4.1
2018-02-03T21:19:50.427Z,4.1
2018-02-03T21:36:37.284Z,4.1
2018-02-03T21:53:24.258Z,4.1
2018-02-03T22:10:11.284Z,4.1
2018-02-03T22:26:58.240Z,4.1
2018-02-03T22:43:46.262Z,4.0
2018-02-03T23:00:35.706Z,4.0
2018-02-03T23:17:20.335Z,4.0
2018-02-03T23:34:07.129Z,4.0
2018-02-03T23:50:53.976Z,4.0
